Time;durP1;ratioP1;P1;durP2;ratioP2;P2;SDS_P1;SDS_P2;PMS_P1;PMS_P2;Temp;Humidity;BMP_temperature;BMP_pressure;BME280_temperature;BME280_humidity;BME280_pressure;Samples;Min_cycle;Max_cycle;Signal;HPM_P1;HPM_P2
2023/07/29 00:01:02;;;;;;;5.32;4.82;;;20.30;99.90;;;;;;5057759;28;20376;-84
2023/07/29 00:03:29;;;;;;;5.60;5.00;;;20.30;99.90;;;;;;5049876;28;20012;-83
2023/07/29 00:05:55;;;;;;;7.07;5.18;;;20.30;99.90;;;;;;5083012;28;20024;-83
2023/07/29 00:08:21;;;;;;;6.10;5.25;;;20.20;99.90;;;;;;5066676;28;20031;-83
2023/07/29 00:10:47;;;;;;;5.18;4.68;;;20.20;99.90;;;;;;5083681;28;20012;-83
2023/07/29 00:13:12;;;;;;;6.07;5.38;;;20.20;99.90;;;;;;5050203;28;20016;-83
2023/07/29 00:15:38;;;;;;;5.75;4.53;;;20.20;99.90;;;;;;5096762;28;20042;-83
2023/07/29 00:18:04;;;;;;;6.43;4.88;;;20.20;99.90;;;;;;5075839;28;20071;-84
2023/07/29 00:20:29;;;;;;;5.43;4.88;;;20.10;99.90;;;;;;5059960;28;20055;-82
2023/07/29 00:22:56;;;;;;;6.68;5.00;;;20.10;99.90;;;;;;5063329;28;20032;-83
2023/07/29 00:25:22;;;;;;;5.63;4.95;;;20.10;99.90;;;;;;5043968;28;20025;-83
2023/07/29 00:27:48;;;;;;;5.50;4.90;;;20.10;99.90;;;;;;5058057;28;20027;-83
2023/07/29 00:30:13;;;;;;;5.95;5.30;;;20.00;99.90;;;;;;5041629;28;20040;-83
2023/07/29 00:32:39;;;;;;;5.20;4.70;;;20.00;99.90;;;;;;5058060;28;20020;-84
2023/07/29 00:35:05;;;;;;;5.88;5.28;;;20.00;99.90;;;;;;5041753;28;20094;-83
2023/07/29 00:37:31;;;;;;;8.98;5.07;;;20.00;99.90;;;;;;5041602;28;20074;-83
2023/07/29 00:39:58;;;;;;;5.57;5.00;;;20.00;99.90;;;;;;5041826;28;20028;-84
2023/07/29 00:42:24;;;;;;;6.32;5.22;;;19.90;99.90;;;;;;5057986;28;20033;-83
2023/07/29 00:44:49;;;;;;;5.43;4.93;;;19.90;99.90;;;;;;5057947;28;20495;-83
2023/07/29 00:47:16;;;;;;;6.75;5.35;;;19.90;99.90;;;;;;5041404;28;20033;-83
2023/07/29 00:49:43;;;;;;;5.88;5.05;;;19.90;99.90;;;;;;5057590;28;20086;-83
2023/07/29 00:52:12;;;;;;;5.75;5.15;;;19.90;99.90;;;;;;5041684;28;20025;-83
2023/07/29 00:54:41;;;;;;;5.60;4.90;;;19.80;99.90;;;;;;5042065;28;20422;-83
2023/07/29 00:57:11;;;;;;;5.47;4.97;;;19.80;99.90;;;;;;5058628;28;20050;-83
2023/07/29 00:59:38;;;;;;;5.15;4.60;;;19.80;99.90;;;;;;5075871;28;20024;-83
2023/07/29 01:02:04;;;;;;;6.00;4.88;;;19.70;99.90;;;;;;5041736;28;20033;-83
2023/07/29 01:04:30;;;;;;;5.90;5.28;;;19.70;99.90;;;;;;5057838;28;20407;-82
2023/07/29 01:07:08;;;;;;;9.95;6.13;;;19.70;99.90;;;;;;5075788;28;20456;-83
2023/07/29 01:09:41;;;;;;;5.60;5.00;;;19.70;99.90;;;;;;5075709;28;20361;-84
2023/07/29 01:12:19;;;;;;;6.32;5.72;;;19.70;99.90;;;;;;5057519;28;20111;-84
2023/07/29 01:15:03;;;;;;;6.38;5.63;;;19.70;99.90;;;;;;5075950;28;20025;-84
2023/07/29 01:17:38;;;;;;;6.50;5.80;;;19.70;99.90;;;;;;5058024;28;20051;-84
2023/07/29 01:20:09;;;;;;;6.93;6.22;;;19.70;99.90;;;;;;5057340;28;20048;-84
2023/07/29 01:22:36;;;;;;;8.02;6.03;;;19.80;99.90;;;;;;5075330;28;20039;-83
2023/07/29 01:25:02;;;;;;;6.57;5.95;;;19.80;99.90;;;;;;5057858;28;20033;-84
2023/07/29 01:27:28;;;;;;;7.78;6.20;;;19.80;99.90;;;;;;5075726;28;20032;-84
2023/07/29 01:29:55;;;;;;;6.80;5.53;;;19.80;99.90;;;;;;5057086;28;20110;-84
2023/07/29 01:32:52;;;;;;;5.88;5.35;;;19.80;99.90;;;;;;5040960;28;20029;-83
2023/07/29 01:35:37;;;;;;;7.32;5.60;;;19.80;99.90;;;;;;5074961;28;20025;-84
2023/07/29 01:38:13;;;;;;;6.28;5.00;;;19.80;99.90;;;;;;5057320;28;20052;-83
2023/07/29 01:40:40;;;;;;;6.22;5.55;;;19.80;99.90;;;;;;5058793;28;20036;-84
2023/07/29 01:43:08;;;;;;;10.88;6.68;;;19.80;99.90;;;;;;5026900;28;20127;-84
2023/07/29 01:45:37;;;;;;;6.75;6.03;;;19.80;99.90;;;;;;5057081;28;20078;-83
2023/07/29 01:48:04;;;;;;;6.38;5.70;;;19.80;99.90;;;;;;5057061;28;20067;-84
2023/07/29 01:50:31;;;;;;;6.95;6.18;;;19.80;99.90;;;;;;5041141;28;20056;-83
2023/07/29 01:52:57;;;;;;;7.70;6.70;;;19.80;99.90;;;;;;5024992;28;20085;-83
2023/07/29 01:55:23;;;;;;;7.75;5.65;;;19.80;99.90;;;;;;5041690;28;20025;-84
2023/07/29 01:57:49;;;;;;;6.50;5.70;;;19.80;99.90;;;;;;5083751;28;20051;-83
2023/07/29 02:00:15;;;;;;;6.30;5.65;;;19.80;99.90;;;;;;5065032;28;20027;-83
2023/07/29 02:02:41;;;;;;;6.30;5.70;;;19.80;99.90;;;;;;5081295;28;20044;-83
2023/07/29 02:05:07;;;;;;;7.07;6.38;;;19.90;99.90;;;;;;5081994;28;20013;-83
2023/07/29 02:07:32;;;;;;;7.80;6.00;;;19.90;99.90;;;;;;5048321;28;20012;-83
2023/07/29 02:09:58;;;;;;;6.18;5.45;;;19.90;99.90;;;;;;5061343;28;20033;-83
2023/07/29 02:12:24;;;;;;;7.93;6.75;;;19.80;99.90;;;;;;5057886;28;20028;-83
2023/07/29 02:14:49;;;;;;;7.60;5.82;;;19.90;99.90;;;;;;5040382;28;20021;-83
2023/07/29 02:17:15;;;;;;;6.50;5.45;;;19.90;99.90;;;;;;5040360;28;20415;-83
2023/07/29 02:19:41;;;;;;;7.28;5.65;;;19.90;99.90;;;;;;5056315;28;20377;-83
2023/07/29 02:22:06;;;;;;;8.32;6.07;;;19.90;99.90;;;;;;5056417;28;20123;-83
2023/07/29 02:24:32;;;;;;;7.65;6.78;;;19.90;99.90;;;;;;5055589;28;20028;-83
2023/07/29 02:26:58;;;;;;;6.85;6.10;;;19.90;99.90;;;;;;5039720;28;20025;-83
2023/07/29 02:29:24;;;;;;;8.38;6.28;;;19.90;99.90;;;;;;5055922;28;20096;-83
2023/07/29 02:31:50;;;;;;;6.65;6.05;;;19.90;99.90;;;;;;5055950;28;20473;-83
2023/07/29 02:34:16;;;;;;;7.60;6.78;;;19.90;99.90;;;;;;5039581;28;20024;-83
2023/07/29 02:36:42;;;;;;;7.25;6.28;;;19.90;99.90;;;;;;5073924;28;20379;-83
2023/07/29 02:39:08;;;;;;;8.40;7.53;;;20.00;99.90;;;;;;5039567;28;20102;-84
2023/07/29 02:41:33;;;;;;;7.80;7.00;;;20.00;99.90;;;;;;5055883;28;20037;-82
2023/07/29 02:43:59;;;;;;;8.27;7.10;;;20.00;99.90;;;;;;5073749;28;20029;-82
2023/07/29 02:46:25;;;;;;;8.30;6.55;;;20.00;99.90;;;;;;5073617;28;20104;-82
2023/07/29 02:48:54;;;;;;;8.20;6.53;;;20.10;99.90;;;;;;5055789;28;20036;-82
2023/07/29 02:51:22;;;;;;;7.75;6.03;;;20.10;99.90;;;;;;5039275;28;20021;-82
2023/07/29 02:53:48;;;;;;;7.07;5.97;;;20.10;99.90;;;;;;5038933;28;20040;-82
2023/07/29 02:56:14;;;;;;;7.00;6.30;;;20.10;99.90;;;;;;5039201;28;20025;-84
2023/07/29 02:58:39;;;;;;;6.28;5.65;;;20.10;99.90;;;;;;5055869;28;20021;-83
2023/07/29 03:01:06;;;;;;;7.35;5.70;;;20.10;99.90;;;;;;5039031;28;20036;-84
2023/07/29 03:03:32;;;;;;;8.45;6.10;;;20.10;99.90;;;;;;5055294;28;20035;-84
2023/07/29 03:06:09;;;;;;;7.47;6.13;;;20.10;99.90;;;;;;5055223;28;20529;-83
2023/07/29 03:08:35;;;;;;;5.70;5.20;;;20.10;99.90;;;;;;5038956;28;20548;-83
2023/07/29 03:11:12;;;;;;;5.82;5.03;;;20.10;99.90;;;;;;5055384;28;20163;-83
2023/07/29 03:13:38;;;;;;;6.15;5.00;;;20.10;99.90;;;;;;5073266;28;20025;-83
2023/07/29 03:16:09;;;;;;;6.20;5.05;;;20.10;99.90;;;;;;5038732;28;20024;-83
2023/07/29 03:18:34;;;;;;;7.40;4.70;;;20.10;99.90;;;;;;5056879;28;20102;-82
2023/07/29 03:21:00;;;;;;;4.25;3.85;;;20.10;99.90;;;;;;5052390;28;20057;-83
2023/07/29 03:23:27;;;;;;;5.00;4.15;;;20.10;99.90;;;;;;5035582;28;20492;-83
2023/07/29 03:25:56;;;;;;;4.10;3.70;;;20.10;99.90;;;;;;5052258;28;20037;-83
2023/07/29 03:28:24;;;;;;;4.63;3.88;;;20.10;99.90;;;;;;5052285;28;20416;-83
2023/07/29 03:30:53;;;;;;;4.35;3.10;;;20.10;99.90;;;;;;5053659;28;20087;-83
2023/07/29 03:33:19;;;;;;;5.88;3.47;;;20.10;99.90;;;;;;5053180;28;20029;-83
2023/07/29 03:35:45;;;;;;;3.90;3.38;;;20.10;99.90;;;;;;5054909;28;20032;-83
2023/07/29 03:38:13;;;;;;;4.97;3.40;;;20.10;99.90;;;;;;5057340;28;20025;-84
2023/07/29 03:40:42;;;;;;;4.10;3.05;;;20.10;99.90;;;;;;5056444;28;20052;-83
2023/07/29 03:43:08;;;;;;;6.13;3.85;;;20.00;99.90;;;;;;5056172;28;20423;-83
2023/07/29 03:45:34;;;;;;;3.22;2.70;;;20.00;99.90;;;;;;5023503;28;20059;-83
2023/07/29 03:48:00;;;;;;;3.45;2.70;;;20.00;99.90;;;;;;5056729;28;20058;-83
2023/07/29 03:50:26;;;;;;;5.22;3.25;;;20.00;99.90;;;;;;5058559;28;20496;-83
2023/07/29 03:52:52;;;;;;;4.40;2.88;;;20.00;99.90;;;;;;5067370;28;20044;-83
2023/07/29 03:55:18;;;;;;;4.65;3.10;;;20.00;99.90;;;;;;5081118;28;20009;-83
2023/07/29 03:57:44;;;;;;;4.80;2.70;;;19.90;99.90;;;;;;5080972;28;20025;-83
2023/07/29 04:00:10;;;;;;;3.38;2.60;;;19.90;99.90;;;;;;5047833;28;20041;-83
2023/07/29 04:02:39;;;;;;;3.95;2.53;;;19.90;99.90;;;;;;5063861;28;20048;-83
2023/07/29 04:05:08;;;;;;;3.53;2.38;;;19.90;99.90;;;;;;5026978;28;20029;-83
2023/07/29 04:07:37;;;;;;;3.28;2.60;;;19.90;99.90;;;;;;5056292;28;20107;-83
2023/07/29 04:10:04;;;;;;;5.07;2.53;;;19.80;99.90;;;;;;5056043;28;20405;-83
2023/07/29 04:12:31;;;;;;;3.50;2.72;;;19.80;99.90;;;;;;5056969;28;20028;-84
2023/07/29 04:14:56;;;;;;;2.85;2.55;;;19.80;99.90;;;;;;5056313;28;20043;-83
2023/07/29 04:17:25;;;;;;;2.80;2.17;;;19.80;99.90;;;;;;5038841;28;20464;-83
2023/07/29 04:19:51;;;;;;;3.85;2.13;;;19.80;99.90;;;;;;5057864;28;20049;-83
2023/07/29 04:22:16;;;;;;;3.17;1.80;;;19.70;99.90;;;;;;5041226;28;20090;-83
2023/07/29 04:24:42;;;;;;;2.78;2.30;;;19.70;99.90;;;;;;5042014;28;20024;-83
2023/07/29 04:27:08;;;;;;;3.38;2.35;;;19.70;99.90;;;;;;5041842;28;20034;-84
2023/07/29 04:29:35;;;;;;;3.00;2.25;;;19.70;99.90;;;;;;5058448;28;20361;-82
2023/07/29 04:32:02;;;;;;;2.38;1.95;;;19.70;99.90;;;;;;5058105;28;20535;-83
2023/07/29 04:34:27;;;;;;;3.70;2.22;;;19.70;99.90;;;;;;5057956;28;20028;-83
2023/07/29 04:36:53;;;;;;;3.33;1.98;;;19.70;99.90;;;;;;5025103;28;20112;-83
2023/07/29 04:39:19;;;;;;;2.78;2.10;;;19.60;99.90;;;;;;5024984;28;20136;-83
2023/07/29 04:41:44;;;;;;;2.72;1.92;;;19.60;99.90;;;;;;5041262;28;20089;-83
2023/07/29 04:44:10;;;;;;;3.40;2.40;;;19.60;99.90;;;;;;5075720;28;20503;-83
2023/07/29 04:46:36;;;;;;;3.13;2.08;;;19.60;99.90;;;;;;5024466;28;20024;-83
2023/07/29 04:49:03;;;;;;;3.38;2.17;;;19.60;99.90;;;;;;5075989;28;20031;-83
2023/07/29 04:51:28;;;;;;;1.95;1.85;;;19.60;99.90;;;;;;5058064;28;20033;-83
2023/07/29 04:53:54;;;;;;;4.57;2.13;;;19.60;99.90;;;;;;5024641;28;20487;-83
2023/07/29 04:56:20;;;;;;;2.30;1.85;;;19.60;99.90;;;;;;5057582;28;20495;-83
2023/07/29 04:58:45;;;;;;;2.80;1.90;;;19.50;99.90;;;;;;5024329;28;20388;-83
2023/07/29 05:01:11;;;;;;;2.50;1.67;;;19.50;99.90;;;;;;5057468;28;20037;-83
2023/07/29 05:03:39;;;;;;;2.75;2.55;;;19.50;99.90;;;;;;5041374;28;20115;-83
2023/07/29 05:06:05;;;;;;;2.10;1.63;;;19.50;99.90;;;;;;5041453;28;20079;-83
2023/07/29 05:08:30;;;;;;;2.92;1.73;;;19.50;99.90;;;;;;5024635;28;20476;-83
2023/07/29 05:10:57;;;;;;;1.85;1.73;;;19.50;99.90;;;;;;5057686;28;20035;-83
2023/07/29 05:13:23;;;;;;;2.47;1.85;;;19.50;99.90;;;;;;5040979;28;20059;-83
2023/07/29 05:15:49;;;;;;;3.15;1.90;;;19.40;99.90;;;;;;5041218;28;20032;-83
2023/07/29 05:18:16;;;;;;;2.85;2.20;;;19.40;99.90;;;;;;5057086;28;20028;-83
2023/07/29 05:20:42;;;;;;;2.60;1.80;;;19.50;99.90;;;;;;5054231;28;20057;-83
2023/07/29 05:23:07;;;;;;;3.13;1.80;;;19.50;99.90;;;;;;5037470;28;20040;-83
2023/07/29 05:25:34;;;;;;;2.03;1.80;;;19.50;99.90;;;;;;5054145;28;20025;-84
2023/07/29 05:28:01;;;;;;;2.38;2.03;;;19.50;99.90;;;;;;5053972;28;20039;-83
2023/07/29 05:30:30;;;;;;;2.65;1.90;;;19.50;99.90;;;;;;5054223;28;20028;-83
2023/07/29 05:32:57;;;;;;;1.90;1.70;;;19.50;99.90;;;;;;5054249;28;20055;-83
2023/07/29 05:35:23;;;;;;;3.08;2.33;;;19.50;99.90;;;;;;5054448;28;20029;-83
2023/07/29 05:37:48;;;;;;;3.05;2.17;;;19.50;99.90;;;;;;5038854;28;20372;-83
2023/07/29 05:40:17;;;;;;;2.92;2.53;;;19.50;99.90;;;;;;5060286;28;20036;-83
2023/07/29 05:42:44;;;;;;;3.13;2.40;;;19.50;99.90;;;;;;5038786;28;20029;-83
2023/07/29 05:45:10;;;;;;;2.53;2.33;;;19.50;99.90;;;;;;5073153;28;20017;-82
2023/07/29 05:47:36;;;;;;;2.85;2.30;;;19.50;99.90;;;;;;5073955;28;20016;-82
2023/07/29 05:50:04;;;;;;;3.20;2.50;;;19.50;99.90;;;;;;5061497;28;20076;-83
2023/07/29 05:52:30;;;;;;;3.75;2.72;;;19.50;99.90;;;;;;5078275;28;20492;-82
2023/07/29 05:54:56;;;;;;;3.20;2.33;;;19.50;99.90;;;;;;5078622;28;20021;-82
2023/07/29 05:57:22;;;;;;;3.25;2.70;;;19.50;99.90;;;;;;5060238;28;20129;-82
2023/07/29 05:59:49;;;;;;;5.55;2.90;;;19.50;99.90;;;;;;5058329;28;20029;-82
2023/07/29 06:02:15;;;;;;;4.53;3.00;;;19.50;99.90;;;;;;5054579;28;20091;-83
2023/07/29 06:04:41;;;;;;;4.75;2.55;;;19.50;99.90;;;;;;5036429;28;20033;-82
2023/07/29 06:07:06;;;;;;;2.97;2.25;;;19.60;99.90;;;;;;5054218;28;20029;-82
2023/07/29 06:09:32;;;;;;;4.78;2.95;;;19.60;99.90;;;;;;5036353;28;20033;-83
2023/07/29 06:11:58;;;;;;;4.43;2.85;;;19.70;99.90;;;;;;5054387;28;20037;-83
2023/07/29 06:14:23;;;;;;;4.60;2.97;;;19.60;99.90;;;;;;5036171;28;20029;-83
2023/07/29 06:16:49;;;;;;;4.03;2.90;;;19.60;99.90;;;;;;5020004;28;20025;-82
2023/07/29 06:19:15;;;;;;;5.32;3.45;;;19.70;99.90;;;;;;5020254;28;20369;-83
2023/07/29 06:21:40;;;;;;;3.83;2.55;;;19.70;99.90;;;;;;5036221;28;20531;-83
2023/07/29 06:24:06;;;;;;;3.42;2.90;;;19.70;99.90;;;;;;5036600;28;20098;-83
2023/07/29 06:26:32;;;;;;;3.35;2.60;;;19.80;99.90;;;;;;5019505;28;20040;-83
2023/07/29 06:28:59;;;;;;;3.53;3.08;;;19.80;99.90;;;;;;5052775;28;20518;-83
2023/07/29 06:31:25;;;;;;;5.35;2.35;;;19.90;99.90;;;;;;5053048;28;20048;-83
2023/07/29 06:33:51;;;;;;;4.68;3.08;;;19.90;99.90;;;;;;5036321;28;20129;-83
2023/07/29 06:36:16;;;;;;;3.67;2.58;;;19.90;99.90;;;;;;5052699;28;20492;-83
2023/07/29 06:38:42;;;;;;;4.05;3.03;;;19.90;99.90;;;;;;5053074;28;20029;-83
2023/07/29 06:41:08;;;;;;;4.32;3.25;;;20.00;99.90;;;;;;5036220;28;20108;-82
2023/07/29 06:43:34;;;;;;;3.90;2.60;;;20.10;99.90;;;;;;5053492;28;20033;-83
2023/07/29 06:45:59;;;;;;;4.25;3.03;;;20.10;99.90;;;;;;5052627;28;20025;-83
2023/07/29 06:48:25;;;;;;;5.22;3.08;;;20.10;99.90;;;;;;5035890;28;20120;-83
2023/07/29 06:50:55;;;;;;;6.47;3.30;;;20.10;99.90;;;;;;5036026;28;20033;-82
2023/07/29 06:53:23;;;;;;;4.72;3.03;;;20.20;99.90;;;;;;5019839;28;20112;-82
2023/07/29 06:55:48;;;;;;;3.45;2.97;;;20.20;99.90;;;;;;5053924;28;20031;-82
2023/07/29 06:58:14;;;;;;;3.50;2.63;;;20.20;99.90;;;;;;5053349;28;20104;-82
2023/07/29 07:00:40;;;;;;;3.90;3.03;;;20.30;99.90;;;;;;5052630;28;20025;-82
2023/07/29 07:03:05;;;;;;;4.10;2.75;;;20.30;99.90;;;;;;5052699;28;20032;-82
2023/07/29 07:05:32;;;;;;;4.32;3.00;;;20.30;99.90;;;;;;5053899;28;20021;-82
2023/07/29 07:07:57;;;;;;;3.35;3.05;;;20.40;99.90;;;;;;5036122;28;20021;-82
2023/07/29 07:10:23;;;;;;;3.47;2.60;;;20.30;99.90;;;;;;5035167;28;20102;-82
2023/07/29 07:12:49;;;;;;;4.55;2.88;;;20.40;99.90;;;;;;5052690;28;20025;-82
2023/07/29 07:15:14;;;;;;;4.63;3.22;;;20.40;99.90;;;;;;5035941;28;20036;-82
2023/07/29 07:17:41;;;;;;;3.75;3.25;;;20.40;99.90;;;;;;5035530;28;20480;-82
2023/07/29 07:20:07;;;;;;;4.82;3.30;;;20.50;99.90;;;;;;5056705;28;20079;-83
2023/07/29 07:22:32;;;;;;;4.53;3.70;;;20.50;99.90;;;;;;5055649;28;20031;-82
2023/07/29 07:24:58;;;;;;;3.70;2.90;;;20.50;99.90;;;;;;5039064;28;20024;-81
2023/07/29 07:27:24;;;;;;;3.03;2.70;;;20.50;99.90;;;;;;5073522;28;20112;-82
2023/07/29 07:29:50;;;;;;;3.38;3.05;;;20.60;99.90;;;;;;5039148;28;20025;-82
2023/07/29 07:32:15;;;;;;;3.50;3.20;;;20.60;99.90;;;;;;5039754;28;20396;-81
2023/07/29 07:34:41;;;;;;;4.82;3.30;;;20.70;99.90;;;;;;5056796;28;20037;-81
2023/07/29 07:37:07;;;;;;;4.60;3.28;;;20.80;99.90;;;;;;5075098;28;20089;-81
2023/07/29 07:39:32;;;;;;;4.65;3.60;;;20.80;99.90;;;;;;5042269;28;20376;-83
2023/07/29 07:41:58;;;;;;;4.28;2.92;;;20.90;99.90;;;;;;5047929;28;20041;-82
2023/07/29 07:44:26;;;;;;;4.25;3.47;;;20.90;99.90;;;;;;5080850;28;20036;-82
2023/07/29 07:46:52;;;;;;;4.03;3.63;;;20.90;99.90;;;;;;5064445;28;20071;-82
2023/07/29 07:49:18;;;;;;;4.32;3.78;;;21.00;99.90;;;;;;5097852;28;20028;-82
2023/07/29 07:51:44;;;;;;;4.05;3.28;;;21.00;99.90;;;;;;5063406;28;20016;-82
2023/07/29 07:54:09;;;;;;;3.28;2.83;;;21.00;99.90;;;;;;5080063;28;20031;-81
2023/07/29 07:56:36;;;;;;;2.95;2.72;;;21.00;99.90;;;;;;5076489;28;20037;-82
2023/07/29 07:59:03;;;;;;;4.28;3.58;;;21.20;99.90;;;;;;5041964;28;20047;-82
2023/07/29 08:01:40;;;;;;;3.83;3.42;;;21.20;99.90;;;;;;5055186;28;20058;-82
2023/07/29 08:04:06;;;;;;;3.72;3.40;;;21.20;99.70;;;;;;5055354;28;20033;-82
2023/07/29 08:06:32;;;;;;;3.67;3.25;;;21.30;99.60;;;;;;5054917;28;20017;-83
2023/07/29 08:08:59;;;;;;;3.30;3.00;;;21.20;99.60;;;;;;5055482;28;20048;-82
2023/07/29 08:11:26;;;;;;;4.07;2.88;;;21.20;99.50;;;;;;5073519;28;20029;-82
2023/07/29 08:13:52;;;;;;;2.70;2.50;;;21.10;99.50;;;;;;5055116;28;20017;-82
2023/07/29 08:16:18;;;;;;;3.20;2.90;;;21.20;99.50;;;;;;5038509;28;20480;-82
2023/07/29 08:18:43;;;;;;;3.08;2.58;;;21.10;99.50;;;;;;5072184;28;20036;-82
2023/07/29 08:21:09;;;;;;;2.25;2.03;;;21.10;99.50;;;;;;5037530;28;20055;-82
2023/07/29 08:23:36;;;;;;;3.28;2.25;;;21.20;99.60;;;;;;5077693;28;20541;-82
2023/07/29 08:26:04;;;;;;;2.80;2.20;;;21.20;99.60;;;;;;5084068;28;20025;-83
2023/07/29 08:28:32;;;;;;;3.05;2.42;;;21.20;99.70;;;;;;5043104;28;20464;-83
2023/07/29 08:30:59;;;;;;;3.83;2.10;;;21.40;99.70;;;;;;5078000;28;20096;-83
2023/07/29 08:33:24;;;;;;;2.95;1.83;;;21.40;99.70;;;;;;5058895;28;20056;-81
2023/07/29 08:35:53;;;;;;;2.22;1.85;;;21.50;99.60;;;;;;5077041;28;20510;-82
2023/07/29 08:38:19;;;;;;;2.03;1.58;;;21.50;99.50;;;;;;5076846;28;20029;-82
2023/07/29 08:40:53;;;;;;;1.98;1.70;;;21.50;99.50;;;;;;5042914;28;20033;-82
2023/07/29 08:43:23;;;;;;;2.75;2.00;;;21.50;99.40;;;;;;5076632;28;20078;-81
2023/07/29 08:45:49;;;;;;;2.50;1.92;;;21.50;99.40;;;;;;5042628;28;20031;-82
2023/07/29 08:48:23;;;;;;;2.20;1.75;;;21.50;99.30;;;;;;5075965;28;20387;-83
2023/07/29 08:50:52;;;;;;;2.85;2.25;;;21.40;99.30;;;;;;5076574;28;20063;-83
2023/07/29 08:53:18;;;;;;;3.22;1.73;;;21.50;99.30;;;;;;5042686;28;20029;-83
2023/07/29 08:55:43;;;;;;;2.38;1.67;;;21.50;99.40;;;;;;5042878;28;20501;-84
2023/07/29 08:58:10;;;;;;;2.30;1.88;;;21.50;99.40;;;;;;5025507;28;20182;-83
2023/07/29 09:00:37;;;;;;;2.17;1.60;;;21.60;99.30;;;;;;5045192;28;20043;-82
2023/07/29 09:03:06;;;;;;;1.77;1.67;;;21.60;99.20;;;;;;5059771;28;20036;-83
2023/07/29 09:05:34;;;;;;;1.67;1.58;;;21.70;99.20;;;;;;5076528;28;20028;-83
2023/07/29 09:08:03;;;;;;;2.90;1.70;;;21.70;99.00;;;;;;5076168;28;20383;-83
2023/07/29 09:10:28;;;;;;;2.55;1.80;;;21.70;98.90;;;;;;5076164;28;20460;-82
2023/07/29 09:12:54;;;;;;;1.83;1.40;;;21.80;98.80;;;;;;5076836;28;20107;-83
2023/07/29 09:15:31;;;;;;;1.88;1.40;;;21.70;98.60;;;;;;5076945;28;20029;-83
2023/07/29 09:17:57;;;;;;;1.55;1.45;;;21.70;98.60;;;;;;5076685;28;20029;-83
2023/07/29 09:20:27;;;;;;;2.47;1.58;;;21.70;98.90;;;;;;5075935;28;20413;-83
2023/07/29 09:23:01;;;;;;;2.22;1.55;;;21.70;98.50;;;;;;5058096;28;20039;-82
2023/07/29 09:25:27;;;;;;;1.50;1.40;;;21.70;98.50;;;;;;5060279;28;20025;-83
2023/07/29 09:27:59;;;;;;;2.13;1.65;;;21.70;98.40;;;;;;5058674;28;20491;-83
2023/07/29 09:30:28;;;;;;;1.90;1.40;;;21.80;98.40;;;;;;5058812;28;20115;-83
2023/07/29 09:32:58;;;;;;;1.40;1.30;;;21.80;98.30;;;;;;5058119;28;20035;-83
2023/07/29 09:35:53;;;;;;;2.83;1.55;;;21.90;98.60;;;;;;5076274;28;20040;-84
2023/07/29 09:38:27;;;;;;;1.67;1.45;;;21.90;98.30;;;;;;5047566;28;20028;-84
2023/07/29 09:40:57;;;;;;;1.77;1.45;;;22.00;98.30;;;;;;5077329;28;20008;-82
2023/07/29 09:43:29;;;;;;;1.30;1.20;;;22.00;98.30;;;;;;5082407;28;20041;-82
2023/07/29 09:45:55;;;;;;;1.85;1.30;;;22.00;98.40;;;;;;5082219;28;20055;-83
2023/07/29 09:48:23;;;;;;;1.30;1.15;;;22.10;98.50;;;;;;5081433;28;20083;-83
2023/07/29 09:50:49;;;;;;;2.35;1.65;;;22.10;98.50;;;;;;5082165;28;20019;-84
2023/07/29 09:53:15;;;;;;;2.70;1.90;;;22.20;98.50;;;;;;5064865;28;20104;-83
2023/07/29 09:55:47;;;;;;;3.25;1.70;;;22.30;98.50;;;;;;5059233;28;20029;-83
2023/07/29 09:58:12;;;;;;;1.88;1.40;;;22.40;98.40;;;;;;5076176;28;20024;-83
2023/07/29 10:00:38;;;;;;;1.88;1.63;;;22.40;98.20;;;;;;5058150;28;20464;-83
2023/07/29 10:03:05;;;;;;;1.98;1.55;;;22.40;98.00;;;;;;5041822;28;20453;-83
2023/07/29 10:05:32;;;;;;;1.67;1.17;;;22.40;98.00;;;;;;5041227;28;20123;-83
2023/07/29 10:07:58;;;;;;;1.27;1.17;;;22.40;98.00;;;;;;5075463;28;20464;-83
2023/07/29 10:10:26;;;;;;;2.47;1.60;;;22.40;98.10;;;;;;5057895;28;20025;-83
2023/07/29 10:12:54;;;;;;;1.63;1.40;;;22.50;98.10;;;;;;5057382;28;20407;-83
2023/07/29 10:15:21;;;;;;;2.08;1.30;;;22.60;98.20;;;;;;5057205;28;20046;-83
2023/07/29 10:17:46;;;;;;;1.70;1.40;;;22.60;98.10;;;;;;5056118;28;20121;-82
2023/07/29 10:20:12;;;;;;;1.83;1.30;;;22.60;98.00;;;;;;5056766;28;20111;-83
2023/07/29 10:22:40;;;;;;;1.38;1.27;;;22.70;97.90;;;;;;5035884;28;20049;-83
2023/07/29 10:25:21;;;;;;;2.00;1.23;;;22.70;97.90;;;;;;5054412;28;20031;-83
2023/07/29 10:27:47;;;;;;;1.52;1.40;;;22.80;97.80;;;;;;5054104;28;20036;-83
2023/07/29 10:30:13;;;;;;;2.75;1.40;;;22.80;97.80;;;;;;5054042;28;20100;-83
2023/07/29 10:32:43;;;;;;;1.77;1.50;;;22.80;97.70;;;;;;5036522;28;20033;-83
2023/07/29 10:35:09;;;;;;;2.00;1.80;;;22.80;97.60;;;;;;5053016;28;20032;-83
2023/07/29 10:37:35;;;;;;;2.83;1.40;;;22.90;97.50;;;;;;5052905;28;20029;-83
2023/07/29 10:40:06;;;;;;;1.77;1.67;;;22.90;97.50;;;;;;5052716;28;20439;-83
2023/07/29 10:42:32;;;;;;;1.58;1.48;;;23.00;97.60;;;;;;5052733;28;20063;-83
2023/07/29 10:44:58;;;;;;;2.25;1.60;;;23.00;97.40;;;;;;5053730;28;20365;-83
2023/07/29 10:47:27;;;;;;;3.08;1.88;;;23.10;97.40;;;;;;5036299;28;20064;-84
2023/07/29 10:49:54;;;;;;;2.22;1.85;;;23.10;97.30;;;;;;5053973;28;20025;-83
2023/07/29 10:52:31;;;;;;;2.92;2.00;;;23.10;97.20;;;;;;5054049;28;20541;-83
2023/07/29 10:55:00;;;;;;;1.95;1.85;;;23.20;97.20;;;;;;5052600;28;20483;-83
2023/07/29 10:57:35;;;;;;;1.48;1.38;;;23.20;97.20;;;;;;5036426;28;20029;-83
2023/07/29 11:00:03;;;;;;;1.77;1.55;;;23.20;97.20;;;;;;5052600;28;20052;-84
2023/07/29 11:02:37;;;;;;;1.88;1.65;;;23.30;97.10;;;;;;5019895;28;20410;-83
2023/07/29 11:05:07;;;;;;;1.70;1.55;;;23.30;97.10;;;;;;5052496;28;20021;-83
2023/07/29 11:07:52;;;;;;;2.65;1.60;;;23.30;97.00;;;;;;5052529;28;20024;-83
2023/07/29 11:10:18;;;;;;;1.80;1.50;;;23.40;97.00;;;;;;5052313;28;20021;-83
2023/07/29 11:12:50;;;;;;;1.70;1.55;;;23.40;97.00;;;;;;5019513;28;20028;-83
2023/07/29 11:15:23;;;;;;;1.55;1.10;;;23.50;96.90;;;;;;5052756;28;20107;-82
2023/07/29 11:17:53;;;;;;;2.50;1.27;;;23.50;96.90;;;;;;5051229;28;20029;-83
2023/07/29 11:20:27;;;;;;;1.67;1.20;;;23.60;96.80;;;;;;5053891;28;20024;-83
2023/07/29 11:22:54;;;;;;;1.40;1.30;;;23.60;96.70;;;;;;5073226;28;20103;-83
2023/07/29 11:25:22;;;;;;;1.83;1.30;;;23.60;96.60;;;;;;5038701;28;20048;-83
2023/07/29 11:27:48;;;;;;;2.17;1.30;;;23.60;96.50;;;;;;5055444;28;20025;-83
2023/07/29 11:30:15;;;;;;;1.30;1.05;;;23.60;96.20;;;;;;5073666;28;20550;-83
2023/07/29 11:32:43;;;;;;;1.40;1.20;;;23.60;96.10;;;;;;5055385;28;20089;-83
2023/07/29 11:35:16;;;;;;;1.30;1.20;;;23.50;96.10;;;;;;5074378;28;20028;-83
2023/07/29 11:37:44;;;;;;;1.17;1.00;;;23.50;96.00;;;;;;5058834;28;20029;-83
2023/07/29 11:40:17;;;;;;;2.70;1.60;;;23.50;96.00;;;;;;5073502;28;20012;-82
2023/07/29 11:42:43;;;;;;;2.95;1.33;;;23.50;96.10;;;;;;5080468;28;20064;-83
2023/07/29 11:45:09;;;;;;;1.25;1.10;;;23.40;95.90;;;;;;5080200;28;20025;-83
2023/07/29 11:47:36;;;;;;;1.80;1.50;;;23.40;96.00;;;;;;5080027;28;20016;-84
2023/07/29 11:50:07;;;;;;;1.30;1.20;;;23.30;96.10;;;;;;5092556;28;20016;-83
2023/07/29 11:52:40;;;;;;;1.15;1.05;;;23.30;96.10;;;;;;5097695;28;20012;-83
2023/07/29 11:55:06;;;;;;;2.10;1.33;;;23.30;96.10;;;;;;5096431;28;20052;-83
2023/07/29 11:57:35;;;;;;;3.10;1.30;;;23.20;96.30;;;;;;5073057;28;20036;-84
2023/07/29 12:00:07;;;;;;;5.90;1.60;;;23.10;96.70;;;;;;5076848;28;20016;-84
2023/07/29 12:02:36;;;;;;;3.25;1.50;;;22.90;97.00;;;;;;5059015;28;20032;-84
2023/07/29 12:05:03;;;;;;;2.85;1.38;;;22.80;97.20;;;;;;5058850;28;20020;-85
2023/07/29 12:07:29;;;;;;;2.28;1.17;;;22.60;97.40;;;;;;5026026;28;20095;-84
2023/07/29 12:09:55;;;;;;;1.13;1.02;;;22.50;97.60;;;;;;5076752;28;20460;-84
2023/07/29 12:12:23;;;;;;;1.45;1.20;;;22.40;97.80;;;;;;5042204;28;20024;-84
2023/07/29 12:14:54;;;;;;;2.13;0.98;;;22.30;97.90;;;;;;5059254;28;20043;-85
2023/07/29 12:17:23;;;;;;;2.25;1.13;;;22.20;98.10;;;;;;5059104;28;20025;-84
2023/07/29 12:19:48;;;;;;;2.17;1.08;;;22.10;98.20;;;;;;5076533;28;20460;-84
2023/07/29 12:22:19;;;;;;;2.85;1.25;;;22.00;98.30;;;;;;5058433;28;20059;-84
2023/07/29 12:24:45;;;;;;;1.42;0.90;;;21.90;98.60;;;;;;5076856;28;20070;-84
2023/07/29 12:27:12;;;;;;;2.03;1.20;;;21.90;98.70;;;;;;5042080;28;20063;-84
2023/07/29 12:29:42;;;;;;;3.38;1.25;;;21.90;98.90;;;;;;5041915;28;20115;-84
2023/07/29 12:32:09;;;;;;;1.30;1.00;;;21.80;99.00;;;;;;5058739;28;20035;-84
2023/07/29 12:34:36;;;;;;;1.20;1.00;;;21.80;99.10;;;;;;5076574;28;20099;-84
2023/07/29 12:37:03;;;;;;;1.20;1.10;;;21.70;99.50;;;;;;5076163;28;20035;-84
2023/07/29 12:39:32;;;;;;;1.85;1.20;;;21.70;99.40;;;;;;5058498;28;20024;-84
2023/07/29 12:41:58;;;;;;;1.48;0.90;;;21.70;99.50;;;;;;5058248;28;20037;-84
2023/07/29 12:44:25;;;;;;;1.13;0.82;;;21.70;99.60;;;;;;5076261;28;20017;-84
2023/07/29 12:46:51;;;;;;;1.10;0.77;;;21.60;99.60;;;;;;5058757;28;20037;-85
2023/07/29 12:49:18;;;;;;;1.20;0.93;;;21.70;99.70;;;;;;5058628;28;20059;-84